Dirección General De Aeronáutica Civil

Dirección Meteorológica de Chile - Servicios Climáticos

Informe General de Control de Calidad de la Estación

Listado de niveles de control de calidad para algunos parámetros
Estación El Tuqui, Ovalle Ad. (300909)
Fecha de Revisión de los datos :

Elementos

Registros Niveles de Control Total
Nivel 0 Nivel 1 Nivel 2 Nivel 3 Errores Porcentaje
01 Temperatura del Aire Seco 15.369 0 . 49 0.32 % 0 . 0 . 49 0.32 %
02 Temperatura de Rocío 14.093 1 0.01 % 0 . 0 . 0 . 1 0.01 %
03 Humedad Relativa del Aire 11.528 0 . 0 . 0 . 0 . 0 0.00 %
04 Temperatura Máxima PM 1.091 0 . 0 . 155 14.21 % 0 . 155 14.21 %
05 Temperatura Mínima AM 1.090 0 . 0 . 24 2.20 % 0 . 24 2.20 %
06 Viento a 10 m. de Altura 15.370 0 . 17 0.11 % 1 0.01 % 0 . 18 0.12 %
07 Agua Caida, Acumulada 6 Horas 2.173 0 . 0 . 0 . 0 . 0 0.00 %
08 Presión Atm. a Nivel Medio del Mar (QFF) 14.445 20 0.14 % 0 . 0 . 0 . 20 0.14 %
09 Tiempo Pasado Sinóptico 4.392 0 . 0 . 0 . 0 . 0 0.00 %
10 Tiempo Presente Sinóptico 15.370 0 . 4 0.03 % 0 . 0 . 4 0.03 %

Totales

94.921 . 0.0221 % . 0.0737 % . 0.1896 % . 0.0000 % 271 0.2855 %

Detalle de Errores Encontrados

Nivel Fecha del Dato Descripción Información Error Fecha Ingreso
0 1952-10-02 10:00:00 qff (Presión a nivel del Mar) debe ser numérico, entre 300 y 1100 11.3 2014-08-04 20:40:00
0 1952-10-02 11:00:00 qff (Presión a nivel del Mar) debe ser numérico, entre 300 y 1100 11.3 2014-08-04 20:40:00
0 1952-10-02 12:00:00 qff (Presión a nivel del Mar) debe ser numérico, entre 300 y 1100 11.4 2014-08-04 20:40:00
0 1952-10-02 13:00:00 qff (Presión a nivel del Mar) debe ser numérico, entre 300 y 1100 12.3 2014-08-04 20:41:00
0 1952-10-02 14:00:00 qff (Presión a nivel del Mar) debe ser numérico, entre 300 y 1100 12.0 2014-08-04 20:41:00
0 1952-10-02 15:00:00 qff (Presión a nivel del Mar) debe ser numérico, entre 300 y 1100 12.8 2014-08-04 20:41:00
0 1952-10-02 16:00:00 qff (Presión a nivel del Mar) debe ser numérico, entre 300 y 1100 13.6 2014-08-04 20:41:00
0 1952-10-02 17:00:00 qff (Presión a nivel del Mar) debe ser numérico, entre 300 y 1100 15.4 2014-08-04 20:41:00
0 1952-10-02 18:00:00 qff (Presión a nivel del Mar) debe ser numérico, entre 300 y 1100 16.6 2014-08-04 20:41:00
0 1952-10-02 19:00:00 qff (Presión a nivel del Mar) debe ser numérico, entre 300 y 1100 16.2 2014-08-04 20:41:00
0 1952-10-02 20:00:00 qff (Presión a nivel del Mar) debe ser numérico, entre 300 y 1100 16.4 2014-08-04 20:41:00
0 1952-10-02 21:00:00 qff (Presión a nivel del Mar) debe ser numérico, entre 300 y 1100 16.4 2014-08-04 20:41:00
0 1952-10-02 22:00:00 qff (Presión a nivel del Mar) debe ser numérico, entre 300 y 1100 15.6 2014-08-04 20:41:00
0 1952-10-02 23:00:00 qff (Presión a nivel del Mar) debe ser numérico, entre 300 y 1100 14.2 2014-08-04 20:41:00
0 1952-12-23 12:00:00 qff (Presión a nivel del Mar) debe ser numérico, entre 300 y 1100 108.8 2014-08-11 16:17:00
0 1953-01-19 21:00:00 qff (Presión a nivel del Mar) debe ser numérico, entre 300 y 1100 116.5 2013-06-12 18:11:00
0 1953-07-10 17:00:00 qff (Presión a nivel del Mar) debe ser numérico, entre 300 y 1100 122.6 2013-07-11 20:59:00
0 1953-07-27 21:00:00 qff (Presión a nivel del Mar) debe ser numérico, entre 300 y 1100 127.9 2013-07-15 13:22:00
0 1953-11-03 17:00:00 qff (Presión a nivel del Mar) debe ser numérico, entre 300 y 1100 12.9 2013-07-26 19:14:00
0 1953-12-06 21:00:00 qff (Presión a nivel del Mar) debe ser numérico, entre 300 y 1100 103.9 2013-07-31 13:38:00
0 1953-10-19 13:00:00 Td (Temperatura Del Punto de Rocio) debe ser numérico, entre -50.0 y 50.0 73.3
Errores del Nivel 21
Nivel Fecha del Dato Descripción Información Error Fecha Ingreso
1 1952-01-07 12:00:00 Viento calma fue mal ingresado. dd = 0 - ff = 2 2014-07-08 14:19:00
1 1952-02-02 11:00:00 Viento calma fue mal ingresado. dd = 0 - ff = 20 2014-07-11 14:34:00
1 1952-06-11 18:00:00 Viento calma fue mal ingresado. dd = 220 - ff = 0 2014-07-24 20:52:00
1 1952-06-18 23:00:00 Viento calma fue mal ingresado. dd = 220 - ff = 0 2014-07-28 15:05:00
1 1952-09-11 18:00:00 Viento calma fue mal ingresado. dd = 220 - ff = 0 2014-08-01 19:58:00
1 1952-09-11 19:00:00 Viento calma fue mal ingresado. dd = 0 - ff = 2 2014-08-01 19:58:00
1 1952-09-11 22:00:00 Viento calma fue mal ingresado. dd = 220 - ff = 0 2014-08-01 19:58:00
1 1952-11-05 12:00:00 Viento calma fue mal ingresado. dd = 220 - ff = 0 2014-08-06 15:54:00
1 1952-11-05 13:00:00 Viento calma fue mal ingresado. dd = 220 - ff = 0 2014-08-06 15:54:00
1 1953-03-20 19:00:00 Viento calma fue mal ingresado. dd = 220 - ff = 0 2013-06-27 19:41:00
1 1953-06-19 23:00:00 Viento calma fue mal ingresado. dd = 220 - ff = 0 2013-07-10 19:11:00
1 1953-07-12 14:00:00 Viento calma fue mal ingresado. dd = 180 - ff = 0 2013-07-12 13:31:00
1 1953-07-12 15:00:00 Viento calma fue mal ingresado. dd = 180 - ff = 0 2013-07-12 13:31:00
1 1953-07-12 16:00:00 Viento calma fue mal ingresado. dd = 360 - ff = 0 2013-07-12 13:31:00
1 1953-08-04 12:00:00 Viento calma fue mal ingresado. dd = 0 - ff = 10 2013-07-15 17:26:00
1 1954-03-19 14:00:00 Viento calma fue mal ingresado. dd = 0 - ff = 2 2012-10-18 20:11:00
1 1954-08-24 23:00:00 Viento calma fue mal ingresado. dd = 220 - ff = 0 2012-10-31 19:41:00
1 1952-04-11 13:00:00 Ts debe ser mayor o igual a Td Ts=9.8 - Td=10.0 2014-07-18 19:40:00
1 1952-04-19 10:00:00 Ts debe ser mayor o igual a Td Ts=10.0 - Td=12.0 2014-07-21 15:59:00
1 1952-05-29 13:00:00 Ts debe ser mayor o igual a Td Ts=5.2 - Td=7.2 2014-07-24 14:03:00
1 1952-06-19 16:00:00 Ts debe ser mayor o igual a Td Ts=7.2 - Td=7.4 2014-07-28 15:15:00
1 1952-08-24 10:00:00 Ts debe ser mayor o igual a Td Ts=3.2 - Td=6.0 2014-07-31 20:38:00
1 1952-08-24 11:00:00 Ts debe ser mayor o igual a Td Ts=3.2 - Td=6.0 2014-07-31 20:38:00
1 1952-08-24 12:00:00 Ts debe ser mayor o igual a Td Ts=3.4 - Td=6.0 2014-07-31 20:38:00
1 1952-10-01 13:00:00 Ts debe ser mayor o igual a Td Ts=10.0 - Td=10.8 2014-08-04 20:34:00
1 1952-10-20 11:00:00 Ts debe ser mayor o igual a Td Ts=1.2 - Td=8.2 2014-08-05 18:59:00
1 1952-12-12 10:00:00 Ts debe ser mayor o igual a Td Ts=14.2 - Td=15.5 2014-08-11 13:28:00
1 1953-01-10 10:00:00 Ts debe ser mayor o igual a Td Ts=13.8 - Td=15.3 2013-06-11 21:14:00
1 1953-01-10 11:00:00 Ts debe ser mayor o igual a Td Ts=13.8 - Td=15.7 2013-06-11 21:15:00
1 1953-04-23 14:00:00 HR (Humedad Relativa) es igual a 100% y Ts <> Td 9.2 - 5.2 2013-07-02 20:41:00
1 1953-06-21 14:00:00 HR (Humedad Relativa) es igual a 100% y Ts <> Td 10.5 - 9.6 2013-07-10 20:08:00
1 1953-07-08 15:00:00 HR (Humedad Relativa) es igual a 100% y Ts <> Td 8.7 - 5.6 2013-07-11 20:23:00
1 1953-07-08 16:00:00 HR (Humedad Relativa) es igual a 100% y Ts <> Td 9.6 - 9.2 2013-07-11 20:23:00
1 1953-07-08 17:00:00 HR (Humedad Relativa) es igual a 100% y Ts <> Td 11.2 - 10.5 2013-07-11 20:24:00
1 1953-07-08 18:00:00 HR (Humedad Relativa) es igual a 100% y Ts <> Td 14.0 - 11.2 2013-07-11 20:23:00
1 1953-07-17 14:00:00 HR (Humedad Relativa) es igual a 100% y Ts <> Td 9.8 - 9.0 2013-07-12 15:05:00
1 1953-07-17 15:00:00 HR (Humedad Relativa) es igual a 100% y Ts <> Td 10.5 - 9.1 2013-07-12 15:05:00
1 1953-07-20 14:00:00 HR (Humedad Relativa) es igual a 100% y Ts <> Td 6.1 - 3.8 2013-07-12 16:00:00
1 1953-07-27 10:00:00 HR (Humedad Relativa) es igual a 100% y Ts <> Td 8.4 - 7.6 2013-07-12 20:05:00
1 1953-07-27 11:00:00 HR (Humedad Relativa) es igual a 100% y Ts <> Td 8.4 - 7.6 2013-07-15 13:22:00
1 1953-07-27 12:00:00 HR (Humedad Relativa) es igual a 100% y Ts <> Td 8.0 - 7.7 2013-07-15 13:22:00
1 1953-07-27 13:00:00 HR (Humedad Relativa) es igual a 100% y Ts <> Td 8.0 - 7.7 2013-07-15 13:23:00
1 1953-07-27 14:00:00 HR (Humedad Relativa) es igual a 100% y Ts <> Td 9.2 - 8.1 2013-07-15 13:22:00
1 1953-07-27 15:00:00 HR (Humedad Relativa) es igual a 100% y Ts <> Td 9.0 - 7.2 2013-07-15 13:23:00
1 1953-07-27 16:00:00 HR (Humedad Relativa) es igual a 100% y Ts <> Td 9.9 - 9.1 2013-07-15 13:21:00
1 1953-07-29 12:00:00 Ts debe ser mayor o igual a Td Ts=2.2 - Td=3.0 2013-07-15 14:39:00
1 1953-07-29 13:00:00 Ts debe ser mayor o igual a Td Ts=2.2 - Td=3.0 2013-07-15 14:39:00
1 1953-08-16 10:00:00 Ts debe ser mayor o igual a Td Ts=6.2 - Td=9.3 2013-07-17 15:50:00
1 1953-08-16 11:00:00 Ts debe ser mayor o igual a Td Ts=6.2 - Td=9.3 2013-07-17 15:50:00
1 1953-08-16 12:00:00 Ts debe ser mayor o igual a Td Ts=5.8 - Td=9.2 2013-07-17 15:49:00
1 1953-08-16 13:00:00 Ts debe ser mayor o igual a Td Ts=7.0 - Td=9.2 2013-07-17 15:51:00
1 1953-09-01 13:00:00 Ts debe ser mayor o igual a Td Ts=0.8 - Td=8.7 2013-07-18 16:58:00
1 1953-09-29 13:00:00 Ts debe ser mayor o igual a Td Ts=0.8 - Td=7.9 2013-07-24 15:46:00
1 1953-10-06 12:00:00 Ts debe ser mayor o igual a Td Ts=7.4 - Td=47.6 2013-07-24 20:02:00
1 1953-10-19 13:00:00 Ts debe ser mayor o igual a Td Ts=8.8 - Td=73.3 2013-07-25 18:35:00
1 1953-11-07 15:00:00 Ts debe ser mayor o igual a Td Ts=11.4 - Td=11.7 2013-07-29 14:54:00
1 1953-12-23 10:00:00 Ts debe ser mayor o igual a Td Ts=11.6 - Td=11.9 2013-08-01 15:13:00
1 1953-12-23 11:00:00 Ts debe ser mayor o igual a Td Ts=11.6 - Td=11.9 2013-08-01 15:13:00
1 1954-04-02 11:00:00 Ts debe ser mayor o igual a Td Ts=2.8 - Td=11.1 2012-10-23 15:32:00
1 1954-06-01 21:00:00 Ts debe ser mayor o igual a Td Ts=14.6 - Td=39.3 2012-10-26 12:12:00
1 1954-06-30 13:00:00 Ts debe ser mayor o igual a Td Ts=-0.6 - Td=-0.4 2012-10-29 18:08:00
1 1954-07-01 13:00:00 Ts debe ser mayor o igual a Td Ts=-0.8 - Td=-0.3 2012-10-29 18:45:00
1 1954-07-14 10:00:00 Ts debe ser mayor o igual a Td Ts=4.0 - Td=5.8 2012-10-29 21:01:00
1 1954-07-22 12:00:00 Ts debe ser mayor o igual a Td Ts=3.4 - Td=8.0 2012-10-30 17:36:00
1 1954-07-22 13:00:00 Ts debe ser mayor o igual a Td Ts=4.0 - Td=7.0 2012-10-30 17:30:00
1 1954-10-17 19:00:00 Ts debe ser mayor o igual a Td Ts=3.7 - Td=8.1 2012-11-07 13:43:00
1 1953-08-21 18:00:00 ts > 12.0 y ( (ww >= 68 y ww <= 69) o (ww >= 83 y ww <= 84)) 69 2013-07-17 19:53:00
1 1953-08-21 19:00:00 ts > 3.0 y ( (ww >= 48 y ww <= 49) o (ww >= 56 y ww <= 57) o (ww >=66 y ww <= 67)) 66 2013-07-17 19:53:00
1 1954-05-14 10:00:00 (ts - td > 5.0) y ((ww >= 40 y ww <= 49)) 45 2012-10-24 20:27:00
1 1954-05-14 11:00:00 (ts - td > 5.0) y ((ww >= 40 y ww <= 49)) 45 2012-10-25 13:32:00
Errores del Nivel 70
Nivel Fecha del Dato Descripción Información Error Fecha Ingreso
2 1952-03-07 00:00:00 Temperatura 26.8 del 06-03-1952 18:00, Mayor que la Máxima 26.4 07-03-1952 00:00 26.8 -- 26.4 2014-07-10 20:13:00
2 1952-05-14 00:00:00 Temperatura 16.0 del 13-05-1952 19:00, Mayor que la Máxima 8.2 14-05-1952 00:00 16.0 -- 8.2 2014-07-28 20:38:00
2 1952-05-15 00:00:00 Temperatura 20.2 del 14-05-1952 21:00, Mayor que la Máxima 20.1 15-05-1952 00:00 20.2 -- 20.1 2014-07-28 20:38:00
2 1952-05-21 00:00:00 Temperatura 22.0 del 20-05-1952 19:00, Mayor que la Máxima 21.4 21-05-1952 00:00 22.0 -- 21.4 2014-07-28 20:39:00
2 1952-05-22 00:00:00 Temperatura 20.3 del 21-05-1952 18:00, Mayor que la Máxima 18.9 22-05-1952 00:00 20.3 -- 18.9 2014-07-28 20:39:00
2 1952-05-23 00:00:00 Temperatura 22.8 del 22-05-1952 19:00, Mayor que la Máxima 20.2 23-05-1952 00:00 22.8 -- 20.2 2014-07-28 20:39:00
2 1952-05-24 00:00:00 Temperatura 23.2 del 23-05-1952 20:00, Mayor que la Máxima 16.9 24-05-1952 00:00 23.2 -- 16.9 2014-07-28 20:39:00
2 1952-05-25 00:00:00 Temperatura 21.0 del 24-05-1952 19:00, Mayor que la Máxima 18.4 25-05-1952 00:00 21.0 -- 18.4 2014-07-28 20:39:00
2 1952-05-27 00:00:00 Temperatura 14.6 del 26-05-1952 20:00, Mayor que la Máxima 14.1 27-05-1952 00:00 14.6 -- 14.1 2014-07-28 20:40:00
2 1952-05-28 00:00:00 Temperatura 21.2 del 27-05-1952 20:00, Mayor que la Máxima 20.2 28-05-1952 00:00 21.2 -- 20.2 2014-07-28 20:40:00
2 1952-06-05 00:00:00 Temperatura 19.8 del 04-06-1952 20:00, Mayor que la Máxima 18.2 05-06-1952 00:00 19.8 -- 18.2 2014-07-29 13:48:00
2 1952-06-06 00:00:00 Temperatura 20.6 del 05-06-1952 19:00, Mayor que la Máxima 20.2 06-06-1952 00:00 20.6 -- 20.2 2014-07-29 13:48:00
2 1952-06-07 00:00:00 Temperatura 19.2 del 06-06-1952 18:00, Mayor que la Máxima 18.3 07-06-1952 00:00 19.2 -- 18.3 2014-07-29 13:48:00
2 1952-06-08 00:00:00 Temperatura 12.4 del 07-06-1952 19:00, Mayor que la Máxima 12.3 08-06-1952 00:00 12.4 -- 12.3 2014-07-29 13:48:00
2 1952-06-13 00:00:00 Temperatura 10.8 del 12-06-1952 18:00, Mayor que la Máxima 10.4 13-06-1952 00:00 10.8 -- 10.4 2014-07-29 13:49:00
2 1952-06-24 00:00:00 Temperatura 16.4 del 23-06-1952 17:00, Mayor que la Máxima 10.2 24-06-1952 00:00 16.4 -- 10.2 2014-07-29 13:50:00
2 1952-06-25 00:00:00 Temperatura 22.0 del 24-06-1952 20:00, Mayor que la Máxima 17.4 25-06-1952 00:00 22.0 -- 17.4 2014-07-29 13:50:00
2 1952-08-24 00:00:00 Temperatura 15.6 del 23-08-1952 19:00, Mayor que la Máxima 14.4 24-08-1952 00:00 15.6 -- 14.4 2014-08-11 20:14:00
2 1952-08-25 00:00:00 Temperatura 21.8 del 24-08-1952 18:00, Mayor que la Máxima 21.4 25-08-1952 00:00 21.8 -- 21.4 2014-08-11 20:14:00
2 1952-11-25 00:00:00 Temperatura 29.2 del 24-11-1952 18:00, Mayor que la Máxima 26.6 25-11-1952 00:00 29.2 -- 26.6 2014-08-12 13:46:00
2 1952-12-11 00:00:00 Temperatura 28.0 del 10-12-1952 20:00, Mayor que la Máxima 26.5 11-12-1952 00:00 28.0 -- 26.5 2014-08-12 14:12:00
2 1952-12-18 00:00:00 Temperatura 27.0 del 17-12-1952 19:00, Mayor que la Máxima 18.4 18-12-1952 00:00 27.0 -- 18.4 2014-08-12 14:13:00
2 1952-12-28 00:00:00 Temperatura 26.4 del 27-12-1952 20:00, Mayor que la Máxima 26.2 28-12-1952 00:00 26.4 -- 26.2 2014-08-12 14:14:00
2 1952-12-31 00:00:00 Temperatura 27.6 del 30-12-1952 20:00, Mayor que la Máxima 21.0 31-12-1952 00:00 27.6 -- 21.0 2014-08-12 14:15:00
2 1953-01-02 00:00:00 Temperatura 25.2 del 01-01-1953 20:00, Mayor que la Máxima 25.0 02-01-1953 00:00 25.2 -- 25.0 2013-07-01 14:09:00
2 1953-01-02 00:00:00 Temperatura 25.2 del 01-01-1953 20:00, Mayor que la Máxima 25.0 02-01-1953 00:00 25.2 -- 25.0 2013-07-01 14:09:00
2 1953-01-16 00:00:00 Temperatura 27.6 del 15-01-1953 20:00, Mayor que la Máxima 26.0 16-01-1953 00:00 27.6 -- 26.0 2013-07-01 16:09:00
2 1953-01-17 00:00:00 Temperatura 29.0 del 16-01-1953 19:00, Mayor que la Máxima 28.4 17-01-1953 00:00 29.0 -- 28.4 2013-07-01 16:09:00
2 1953-02-17 00:00:00 Temperatura 29.0 del 16-02-1953 19:00, Mayor que la Máxima 28.8 17-02-1953 00:00 29.0 -- 28.8 2013-07-01 18:17:00
2 1953-03-22 00:00:00 Temperatura 26.9 del 21-03-1953 20:00, Mayor que la Máxima 23.2 22-03-1953 00:00 26.9 -- 23.2 2013-07-01 20:13:00
2 1953-05-26 00:00:00 Temperatura 13.0 del 25-05-1953 18:00, Mayor que la Máxima 12.6 26-05-1953 00:00 13.0 -- 12.6 2013-07-10 15:31:00
2 1953-05-27 00:00:00 Temperatura 12.8 del 26-05-1953 17:00, Mayor que la Máxima 12.6 27-05-1953 00:00 12.8 -- 12.6 2013-07-10 15:31:00
2 1953-05-28 00:00:00 Temperatura 16.6 del 27-05-1953 13:00, Mayor que la Máxima 13.4 28-05-1953 00:00 16.6 -- 13.4 2013-07-10 15:31:00
2 1953-06-02 00:00:00 Temperatura 27.8 del 01-06-1953 19:00, Mayor que la Máxima 24.2 02-06-1953 00:00 27.8 -- 24.2 2013-07-10 15:49:00
2 1953-06-11 00:00:00 Temperatura 18.8 del 10-06-1953 18:00, Mayor que la Máxima 18.1 11-06-1953 00:00 18.8 -- 18.1 2013-07-10 15:51:00
2 1953-06-25 00:00:00 Temperatura 18.6 del 24-06-1953 18:00, Mayor que la Máxima 14.8 25-06-1953 00:00 18.6 -- 14.8 2013-07-10 15:54:00
2 1953-07-28 00:00:00 Temperatura 15.5 del 27-07-1953 18:00, Mayor que la Máxima 12.4 28-07-1953 00:00 15.5 -- 12.4 2013-07-11 15:24:00
2 1953-08-12 00:00:00 Temperatura 20.6 del 11-08-1953 19:00, Mayor que la Máxima 19.6 12-08-1953 00:00 20.6 -- 19.6 2013-07-11 15:48:00
2 1953-08-14 00:00:00 Temperatura 27.8 del 13-08-1953 20:00, Mayor que la Máxima 27.6 14-08-1953 00:00 27.8 -- 27.6 2013-07-11 15:48:00
2 1953-08-17 00:00:00 Temperatura 21.2 del 16-08-1953 20:00, Mayor que la Máxima 20.0 17-08-1953 00:00 21.2 -- 20.0 2013-07-11 15:47:00
2 1953-08-27 00:00:00 Temperatura 20.6 del 26-08-1953 20:00, Mayor que la Máxima 20.4 27-08-1953 00:00 20.6 -- 20.4 2013-07-11 15:47:00
2 1953-08-29 00:00:00 Temperatura 22.2 del 28-08-1953 19:00, Mayor que la Máxima 22.0 29-08-1953 00:00 22.2 -- 22.0 2013-07-11 15:47:00
2 1953-08-30 00:00:00 Temperatura 18.8 del 29-08-1953 19:00, Mayor que la Máxima 18.0 30-08-1953 00:00 18.8 -- 18.0 2013-07-11 15:47:00
2 1953-09-26 00:00:00 Temperatura 24.6 del 25-09-1953 16:00, Mayor que la Máxima 16.2 26-09-1953 00:00 24.6 -- 16.2 2013-07-26 15:33:00
2 1953-09-28 00:00:00 Temperatura 23.7 del 27-09-1953 19:00, Mayor que la Máxima 17.5 28-09-1953 00:00 23.7 -- 17.5 2013-07-26 15:46:00
2 1953-09-30 00:00:00 Temperatura 20.0 del 29-09-1953 18:00, Mayor que la Máxima 13.5 30-09-1953 00:00 20.0 -- 13.5 2013-07-26 15:43:00
2 1953-10-08 00:00:00 Temperatura 20.6 del 07-10-1953 20:00, Mayor que la Máxima 20.4 08-10-1953 00:00 20.6 -- 20.4 2013-07-26 17:01:00
2 1953-10-09 00:00:00 Temperatura 24.2 del 08-10-1953 19:00, Mayor que la Máxima 23.0 09-10-1953 00:00 24.2 -- 23.0 2013-07-26 17:05:00
2 1953-11-06 00:00:00 Temperatura 26.6 del 05-11-1953 20:00, Mayor que la Máxima 24.8 06-11-1953 00:00 26.6 -- 24.8 2013-08-01 18:59:00
2 1953-11-09 00:00:00 Temperatura 25.0 del 08-11-1953 19:00, Mayor que la Máxima 24.4 09-11-1953 00:00 25.0 -- 24.4 2013-08-01 19:03:00
2 1953-12-01 00:00:00 Temperatura 25.0 del 30-11-1953 19:00, Mayor que la Máxima 24.2 01-12-1953 00:00 25.0 -- 24.2 2013-08-01 18:59:00
2 1953-12-15 00:00:00 Temperatura 24.4 del 14-12-1953 20:00, Mayor que la Máxima 24.0 15-12-1953 00:00 24.4 -- 24.0 2013-08-01 20:30:00
2 1954-01-08 00:00:00 Temperatura 29.6 del 07-01-1954 17:00, Mayor que la Máxima 29.4 08-01-1954 00:00 29.6 -- 29.4 2012-11-14 13:51:00
2 1954-01-10 00:00:00 Temperatura 29.2 del 09-01-1954 22:00, Mayor que la Máxima 28.2 10-01-1954 00:00 29.2 -- 28.2 2012-11-14 13:52:00
2 1954-01-12 00:00:00 Temperatura 33.3 del 11-01-1954 17:00, Mayor que la Máxima 28.4 12-01-1954 00:00 33.3 -- 28.4 2012-11-14 13:55:00
2 1954-02-01 00:00:00 Temperatura 29.5 del 31-01-1954 20:00, Mayor que la Máxima 26.4 01-02-1954 00:00 29.5 -- 26.4 2012-11-14 14:34:00
2 1954-02-04 00:00:00 Temperatura 30.4 del 03-02-1954 20:00, Mayor que la Máxima 29.0 04-02-1954 00:00 30.4 -- 29.0 2012-11-14 14:46:00
2 1954-02-05 00:00:00 Temperatura 28.4 del 04-02-1954 20:00, Mayor que la Máxima 27.4 05-02-1954 00:00 28.4 -- 27.4 2012-11-14 14:54:00
2 1954-02-07 00:00:00 Temperatura 28.2 del 06-02-1954 21:00, Mayor que la Máxima 28.0 07-02-1954 00:00 28.2 -- 28.0 2012-11-14 14:54:00
2 1954-02-09 00:00:00 Temperatura 27.8 del 08-02-1954 20:00, Mayor que la Máxima 25.2 09-02-1954 00:00 27.8 -- 25.2 2012-11-14 15:01:00
2 1954-02-11 00:00:00 Temperatura 28.2 del 10-02-1954 22:00, Mayor que la Máxima 26.4 11-02-1954 00:00 28.2 -- 26.4 2012-11-14 15:01:00
2 1954-02-15 00:00:00 Temperatura 29.2 del 14-02-1954 19:00, Mayor que la Máxima 29.0 15-02-1954 00:00 29.2 -- 29.0 2012-11-14 15:18:00
2 1954-02-18 00:00:00 Temperatura 31.8 del 17-02-1954 20:00, Mayor que la Máxima 30.0 18-02-1954 00:00 31.8 -- 30.0 2012-11-14 15:22:00
2 1954-02-19 00:00:00 Temperatura 29.6 del 18-02-1954 20:00, Mayor que la Máxima 28.4 19-02-1954 00:00 29.6 -- 28.4 2012-11-14 15:22:00
2 1954-02-20 00:00:00 Temperatura 26.6 del 19-02-1954 20:00, Mayor que la Máxima 24.8 20-02-1954 00:00 26.6 -- 24.8 2012-11-14 15:22:00
2 1954-02-25 00:00:00 Temperatura 28.0 del 24-02-1954 19:00, Mayor que la Máxima 27.4 25-02-1954 00:00 28.0 -- 27.4 2012-11-14 15:33:00
2 1954-03-19 00:00:00 Temperatura 27.0 del 18-03-1954 20:00, Mayor que la Máxima 21.2 19-03-1954 00:00 27.0 -- 21.2 2012-11-14 17:49:00
2 1954-04-02 00:00:00 Temperatura 29.0 del 01-04-1954 18:00, Mayor que la Máxima 26.4 02-04-1954 00:00 29.0 -- 26.4 2012-11-14 18:39:00
2 1954-04-04 00:00:00 Temperatura 29.0 del 03-04-1954 20:00, Mayor que la Máxima 26.8 04-04-1954 00:00 29.0 -- 26.8 2012-11-14 18:40:00
2 1954-04-10 00:00:00 Temperatura 20.2 del 09-04-1954 20:00, Mayor que la Máxima 20.0 10-04-1954 00:00 20.2 -- 20.0 2012-11-14 18:59:00
2 1954-04-17 00:00:00 Temperatura 16.3 del 16-04-1954 22:00, Mayor que la Máxima 16.2 17-04-1954 00:00 16.3 -- 16.2 2012-11-14 19:01:00
2 1954-06-03 00:00:00 Temperatura 16.5 del 02-06-1954 17:00, Mayor que la Máxima 12.2 03-06-1954 00:00 16.5 -- 12.2 2012-11-14 19:44:00
2 1954-06-06 00:00:00 Temperatura 21.6 del 05-06-1954 20:00, Mayor que la Máxima 18.6 06-06-1954 00:00 21.6 -- 18.6 2012-11-14 19:45:00
2 1954-06-07 00:00:00 Temperatura 18.0 del 06-06-1954 20:00, Mayor que la Máxima 13.4 07-06-1954 00:00 18.0 -- 13.4 2012-11-14 19:45:00
2 1954-06-11 00:00:00 Temperatura 19.0 del 10-06-1954 20:00, Mayor que la Máxima 11.6 11-06-1954 00:00 19.0 -- 11.6 2012-11-14 19:47:00
2 1954-06-14 00:00:00 Temperatura 23.6 del 13-06-1954 19:00, Mayor que la Máxima 16.2 14-06-1954 00:00 23.6 -- 16.2 2012-11-14 19:48:00
2 1954-06-16 00:00:00 Temperatura 17.8 del 15-06-1954 19:00, Mayor que la Máxima 11.8 16-06-1954 00:00 17.8 -- 11.8 2012-11-14 19:49:00
2 1954-06-19 00:00:00 Temperatura 21.9 del 18-06-1954 20:00, Mayor que la Máxima 16.6 19-06-1954 00:00 21.9 -- 16.6 2012-11-14 19:50:00
2 1954-06-20 00:00:00 Temperatura 16.2 del 19-06-1954 16:00, Mayor que la Máxima 12.4 20-06-1954 00:00 16.2 -- 12.4 2012-11-14 19:51:00
2 1954-06-23 00:00:00 Temperatura 21.9 del 22-06-1954 19:00, Mayor que la Máxima 11.6 23-06-1954 00:00 21.9 -- 11.6 2012-11-14 19:52:00
2 1954-06-25 00:00:00 Temperatura 13.0 del 24-06-1954 19:00, Mayor que la Máxima 11.2 25-06-1954 00:00 13.0 -- 11.2 2012-11-14 19:53:00
2 1954-06-29 00:00:00 Temperatura 14.5 del 28-06-1954 20:00, Mayor que la Máxima 14.2 29-06-1954 00:00 14.5 -- 14.2 2012-11-14 19:58:00
2 1954-06-30 00:00:00 Temperatura 13.6 del 29-06-1954 19:00, Mayor que la Máxima 13.0 30-06-1954 00:00 13.6 -- 13.0 2012-11-14 19:58:00
2 1954-07-01 00:00:00 Temperatura 13.0 del 30-06-1954 20:00, Mayor que la Máxima 9.8 01-07-1954 00:00 13.0 -- 9.8 2012-11-14 19:58:00
2 1954-07-04 00:00:00 Temperatura 21.0 del 03-07-1954 20:00, Mayor que la Máxima 19.5 04-07-1954 00:00 21.0 -- 19.5 2012-11-14 20:19:00
2 1954-07-05 00:00:00 Temperatura 19.4 del 04-07-1954 19:00, Mayor que la Máxima 15.4 05-07-1954 00:00 19.4 -- 15.4 2012-11-14 20:19:00
2 1954-07-07 00:00:00 Temperatura 17.0 del 06-07-1954 20:00, Mayor que la Máxima 15.8 07-07-1954 00:00 17.0 -- 15.8 2012-11-14 20:27:00
2 1954-07-08 00:00:00 Temperatura 15.3 del 07-07-1954 19:00, Mayor que la Máxima 13.4 08-07-1954 00:00 15.3 -- 13.4 2012-11-14 20:27:00
2 1954-07-09 00:00:00 Temperatura 13.0 del 08-07-1954 21:00, Mayor que la Máxima 11.4 09-07-1954 00:00 13.0 -- 11.4 2012-11-14 20:28:00
2 1954-07-14 00:00:00 Temperatura 17.0 del 13-07-1954 21:00, Mayor que la Máxima 15.8 14-07-1954 00:00 17.0 -- 15.8 2012-11-14 20:30:00
2 1954-07-16 00:00:00 Temperatura 20.6 del 15-07-1954 20:00, Mayor que la Máxima 19.5 16-07-1954 00:00 20.6 -- 19.5 2012-11-14 20:31:00
2 1954-07-17 00:00:00 Temperatura 19.2 del 16-07-1954 19:00, Mayor que la Máxima 17.0 17-07-1954 00:00 19.2 -- 17.0 2012-11-14 20:31:00
2 1954-07-18 00:00:00 Temperatura 16.6 del 17-07-1954 21:00, Mayor que la Máxima 12.4 18-07-1954 00:00 16.6 -- 12.4 2012-11-14 20:31:00
2 1954-07-22 00:00:00 Temperatura 20.4 del 21-07-1954 19:00, Mayor que la Máxima 15.6 22-07-1954 00:00 20.4 -- 15.6 2012-11-14 20:33:00
2 1954-07-23 00:00:00 Temperatura 15.4 del 22-07-1954 20:00, Mayor que la Máxima 14.2 23-07-1954 00:00 15.4 -- 14.2 2012-11-14 20:34:00
2 1954-07-25 00:00:00 Temperatura 19.6 del 24-07-1954 20:00, Mayor que la Máxima 13.2 25-07-1954 00:00 19.6 -- 13.2 2012-11-14 20:37:00
2 1954-07-27 00:00:00 Temperatura 16.2 del 26-07-1954 18:00, Mayor que la Máxima 12.4 27-07-1954 00:00 16.2 -- 12.4 2012-11-14 20:51:00
2 1954-07-29 00:00:00 Temperatura 14.8 del 28-07-1954 21:00, Mayor que la Máxima 10.8 29-07-1954 00:00 14.8 -- 10.8 2012-11-14 20:52:00
2 1954-08-01 00:00:00 Temperatura 16.8 del 31-07-1954 19:00, Mayor que la Máxima 16.4 01-08-1954 00:00 16.8 -- 16.4 2012-11-14 20:53:00
2 1954-08-02 00:00:00 Temperatura 16.0 del 01-08-1954 21:00, Mayor que la Máxima 9.2 02-08-1954 00:00 16.0 -- 9.2 2012-11-15 12:51:00
2 1954-08-08 00:00:00 Temperatura 20.4 del 07-08-1954 18:00, Mayor que la Máxima 19.4 08-08-1954 00:00 20.4 -- 19.4 2012-11-15 13:01:00
2 1954-08-10 00:00:00 Temperatura 25.6 del 09-08-1954 20:00, Mayor que la Máxima 14.1 10-08-1954 00:00 25.6 -- 14.1 2012-11-15 13:02:00
2 1954-08-14 00:00:00 Temperatura 24.0 del 13-08-1954 19:00, Mayor que la Máxima 17.0 14-08-1954 00:00 24.0 -- 17.0 2012-11-15 15:16:00
2 1954-08-15 00:00:00 Temperatura 16.4 del 14-08-1954 20:00, Mayor que la Máxima 12.4 15-08-1954 00:00 16.4 -- 12.4 2012-11-15 15:19:00
2 1954-08-17 00:00:00 Temperatura 17.2 del 16-08-1954 22:00, Mayor que la Máxima 15.0 17-08-1954 00:00 17.2 -- 15.0 2012-11-15 15:20:00
2 1954-08-22 00:00:00 Temperatura 19.6 del 21-08-1954 20:00, Mayor que la Máxima 15.2 22-08-1954 00:00 19.6 -- 15.2 2012-11-15 15:41:00
2 1954-08-25 00:00:00 Temperatura 25.6 del 24-08-1954 21:00, Mayor que la Máxima 21.2 25-08-1954 00:00 25.6 -- 21.2 2012-11-15 15:42:00
2 1954-08-27 00:00:00 Temperatura 25.0 del 26-08-1954 19:00, Mayor que la Máxima 13.6 27-08-1954 00:00 25.0 -- 13.6 2012-11-15 15:42:00
2 1954-08-29 00:00:00 Temperatura 16.1 del 28-08-1954 20:00, Mayor que la Máxima 12.2 29-08-1954 00:00 16.1 -- 12.2 2012-11-15 15:43:00
2 1954-09-01 00:00:00 Temperatura 15.4 del 31-08-1954 21:00, Mayor que la Máxima 13.6 01-09-1954 00:00 15.4 -- 13.6 2012-11-15 15:44:00
2 1954-09-03 00:00:00 Temperatura 17.4 del 02-09-1954 20:00, Mayor que la Máxima 16.5 03-09-1954 00:00 17.4 -- 16.5 2012-11-15 15:50:00
2 1954-09-06 00:00:00 Temperatura 20.2 del 05-09-1954 20:00, Mayor que la Máxima 19.8 06-09-1954 00:00 20.2 -- 19.8 2012-11-15 15:51:00
2 1954-09-07 00:00:00 Temperatura 17.8 del 06-09-1954 20:00, Mayor que la Máxima 17.2 07-09-1954 00:00 17.8 -- 17.2 2012-11-15 15:52:00
2 1954-09-10 00:00:00 Temperatura 18.6 del 09-09-1954 20:00, Mayor que la Máxima 15.8 10-09-1954 00:00 18.6 -- 15.8 2012-11-15 15:53:00
2 1954-09-14 00:00:00 Temperatura 22.4 del 13-09-1954 18:00, Mayor que la Máxima 13.0 14-09-1954 00:00 22.4 -- 13.0 2012-11-15 15:54:00
2 1954-09-20 00:00:00 Temperatura 22.8 del 19-09-1954 18:00, Mayor que la Máxima 16.4 20-09-1954 00:00 22.8 -- 16.4 2012-11-15 15:56:00
2 1954-09-22 00:00:00 Temperatura 21.8 del 21-09-1954 20:00, Mayor que la Máxima 21.2 22-09-1954 00:00 21.8 -- 21.2 2012-11-15 15:57:00
2 1954-09-23 00:00:00 Temperatura 20.0 del 22-09-1954 20:00, Mayor que la Máxima 14.4 23-09-1954 00:00 20.0 -- 14.4 2012-11-15 15:57:00
2 1954-09-30 00:00:00 Temperatura 24.8 del 29-09-1954 20:00, Mayor que la Máxima 24.0 30-09-1954 00:00 24.8 -- 24.0 2012-11-15 16:00:00
2 1954-10-01 00:00:00 Temperatura 23.4 del 30-09-1954 18:00, Mayor que la Máxima 20.4 01-10-1954 00:00 23.4 -- 20.4 2012-11-15 16:00:00
2 1954-10-02 00:00:00 Temperatura 19.2 del 01-10-1954 19:00, Mayor que la Máxima 17.4 02-10-1954 00:00 19.2 -- 17.4 2012-11-15 17:10:00
2 1954-10-04 00:00:00 Temperatura 18.8 del 03-10-1954 20:00, Mayor que la Máxima 18.2 04-10-1954 00:00 18.8 -- 18.2 2012-11-15 17:11:00
2 1954-10-07 00:00:00 Temperatura 22.0 del 06-10-1954 19:00, Mayor que la Máxima 18.8 07-10-1954 00:00 22.0 -- 18.8 2012-11-15 17:19:00
2 1954-10-11 00:00:00 Temperatura 25.9 del 10-10-1954 17:00, Mayor que la Máxima 19.4 11-10-1954 00:00 25.9 -- 19.4 2012-11-15 17:20:00
2 1954-10-13 00:00:00 Temperatura 21.8 del 12-10-1954 20:00, Mayor que la Máxima 20.6 13-10-1954 00:00 21.8 -- 20.6 2012-11-15 17:21:00
2 1954-10-15 00:00:00 Temperatura 20.8 del 14-10-1954 19:00, Mayor que la Máxima 19.6 15-10-1954 00:00 20.8 -- 19.6 2012-11-15 17:21:00
2 1954-10-18 00:00:00 Temperatura 23.4 del 17-10-1954 18:00, Mayor que la Máxima 22.0 18-10-1954 00:00 23.4 -- 22.0 2012-11-15 17:22:00
2 1954-10-19 00:00:00 Temperatura 20.0 del 18-10-1954 18:00, Mayor que la Máxima 3.0 19-10-1954 00:00 20.0 -- 3.0 2012-11-15 17:23:00
2 1954-10-22 00:00:00 Temperatura 27.7 del 21-10-1954 19:00, Mayor que la Máxima 19.6 22-10-1954 00:00 27.7 -- 19.6 2012-11-15 17:24:00
2 1954-10-26 00:00:00 Temperatura 22.6 del 25-10-1954 21:00, Mayor que la Máxima 15.0 26-10-1954 00:00 22.6 -- 15.0 2012-11-15 17:49:00
2 1954-10-28 00:00:00 Temperatura 23.0 del 27-10-1954 19:00, Mayor que la Máxima 20.6 28-10-1954 00:00 23.0 -- 20.6 2012-11-15 17:50:00
2 1954-11-01 00:00:00 Temperatura 27.2 del 31-10-1954 19:00, Mayor que la Máxima 22.8 01-11-1954 00:00 27.2 -- 22.8 2012-11-15 17:51:00
2 1954-11-02 00:00:00 Temperatura 21.8 del 01-11-1954 20:00, Mayor que la Máxima 20.8 02-11-1954 00:00 21.8 -- 20.8 2012-11-15 18:02:00
2 1954-11-04 00:00:00 Temperatura 26.6 del 03-11-1954 19:00, Mayor que la Máxima 26.2 04-11-1954 00:00 26.6 -- 26.2 2012-11-15 18:02:00
2 1954-11-05 00:00:00 Temperatura 25.4 del 04-11-1954 19:00, Mayor que la Máxima 23.8 05-11-1954 00:00 25.4 -- 23.8 2012-11-15 18:03:00
2 1954-11-08 00:00:00 Temperatura 25.6 del 07-11-1954 20:00, Mayor que la Máxima 25.4 08-11-1954 00:00 25.6 -- 25.4 2012-11-15 18:04:00
2 1954-11-09 00:00:00 Temperatura 24.8 del 08-11-1954 20:00, Mayor que la Máxima 24.2 09-11-1954 00:00 24.8 -- 24.2 2012-11-15 18:04:00
2 1954-11-13 00:00:00 Temperatura 24.0 del 12-11-1954 20:00, Mayor que la Máxima 23.6 13-11-1954 00:00 24.0 -- 23.6 2012-11-15 18:06:00
2 1954-11-19 00:00:00 Temperatura 24.0 del 18-11-1954 20:00, Mayor que la Máxima 21.8 19-11-1954 00:00 24.0 -- 21.8 2012-11-15 18:08:00
2 1954-11-23 00:00:00 Temperatura 25.0 del 22-11-1954 19:00, Mayor que la Máxima 22.4 23-11-1954 00:00 25.0 -- 22.4 2012-11-15 18:10:00
2 1954-11-29 00:00:00 Temperatura 25.0 del 28-11-1954 20:00, Mayor que la Máxima 23.8 29-11-1954 00:00 25.0 -- 23.8 2012-11-15 18:12:00
2 1954-12-04 00:00:00 Temperatura 25.0 del 03-12-1954 20:00, Mayor que la Máxima 24.4 04-12-1954 00:00 25.0 -- 24.4 2012-11-15 18:17:00
2 1954-12-06 00:00:00 Temperatura 28.0 del 05-12-1954 18:00, Mayor que la Máxima 27.8 06-12-1954 00:00 28.0 -- 27.8 2012-11-15 18:18:00
2 1954-12-10 00:00:00 Temperatura 28.2 del 09-12-1954 18:00, Mayor que la Máxima 14.1 10-12-1954 00:00 28.2 -- 14.1 2012-11-15 12:37:00
2 1954-12-11 00:00:00 Temperatura 24.4 del 10-12-1954 19:00, Mayor que la Máxima 16.0 11-12-1954 00:00 24.4 -- 16.0 2012-11-15 12:37:00
2 1954-12-13 00:00:00 Temperatura 29.0 del 12-12-1954 18:00, Mayor que la Máxima 26.4 13-12-1954 00:00 29.0 -- 26.4 2012-11-15 18:20:00
2 1954-12-14 00:00:00 Temperatura 25.6 del 13-12-1954 18:00, Mayor que la Máxima 17.0 14-12-1954 00:00 25.6 -- 17.0 2012-11-15 12:41:00
2 1954-12-15 00:00:00 Temperatura 25.6 del 14-12-1954 20:00, Mayor que la Máxima 12.4 15-12-1954 00:00 25.6 -- 12.4 2012-11-15 12:41:00
2 1954-12-17 00:00:00 Temperatura 27.6 del 16-12-1954 20:00, Mayor que la Máxima 26.4 17-12-1954 00:00 27.6 -- 26.4 2012-11-15 18:21:00
2 1954-12-19 00:00:00 Temperatura 30.8 del 18-12-1954 20:00, Mayor que la Máxima 23.4 19-12-1954 00:00 30.8 -- 23.4 2012-11-15 18:22:00
2 1954-12-22 00:00:00 Temperatura 26.0 del 21-12-1954 19:00, Mayor que la Máxima 23.8 22-12-1954 00:00 26.0 -- 23.8 2012-11-15 18:23:00
2 1954-12-23 00:00:00 Temperatura 24.2 del 22-12-1954 20:00, Mayor que la Máxima 24.0 23-12-1954 00:00 24.2 -- 24.0 2012-11-15 18:23:00
2 1954-12-25 00:00:00 Temperatura 28.6 del 24-12-1954 21:00, Mayor que la Máxima 23.2 25-12-1954 00:00 28.6 -- 23.2 2012-11-15 18:24:00
2 1954-12-27 00:00:00 Temperatura 26.0 del 26-12-1954 19:00, Mayor que la Máxima 25.6 27-12-1954 00:00 26.0 -- 25.6 2012-11-15 18:25:00
2 1954-12-29 00:00:00 Temperatura 24.8 del 28-12-1954 19:00, Mayor que la Máxima 23.6 29-12-1954 00:00 24.8 -- 23.6 2012-11-15 18:25:00
2 1952-04-09 12:00:00 Temperatura 9.3 del 09-04-1952 11:00, Menor que la Mínima 9.4 09-04-1952 12:00 9.3 -- 9.4 2014-07-18 19:15:00
2 1952-04-19 12:00:00 Temperatura 10.0 del 19-04-1952 10:00, Menor que la Mínima 11.2 19-04-1952 12:00 10.0 -- 11.2 2014-07-21 15:59:00
2 1952-05-26 12:00:00 Temperatura 6.8 del 26-05-1952 10:00, Menor que la Mínima 7.2 26-05-1952 12:00 6.8 -- 7.2 2014-07-23 21:33:00
2 1952-10-20 12:00:00 Temperatura 1.2 del 20-10-1952 11:00, Menor que la Mínima 7.6 20-10-1952 12:00 1.2 -- 7.6 2014-08-05 18:59:00
2 1952-11-01 12:00:00 Temperatura 6.2 del 01-11-1952 10:00, Menor que la Mínima 6.6 01-11-1952 12:00 6.2 -- 6.6 2014-08-06 15:28:00
2 1953-01-02 12:00:00 Temperatura 12.4 del 02-01-1953 10:00, Menor que la Mínima 13.6 02-01-1953 12:00 12.4 -- 13.6 2013-06-11 15:52:00
2 1953-01-03 12:00:00 Temperatura 13.2 del 03-01-1953 10:00, Menor que la Mínima 14.0 03-01-1953 12:00 13.2 -- 14.0 2013-06-11 16:33:00
2 1953-01-04 12:00:00 Temperatura 13.4 del 04-01-1953 10:00, Menor que la Mínima 15.0 04-01-1953 12:00 13.4 -- 15.0 2013-06-11 18:56:00
2 1953-05-07 12:00:00 Temperatura 11.0 del 07-05-1953 12:00, Menor que la Mínima 11.1 07-05-1953 12:00 11.0 -- 11.1 2013-07-04 14:54:00
2 1953-05-25 12:00:00 Temperatura 9.0 del 25-05-1953 10:00, Menor que la Mínima 11.2 25-05-1953 12:00 9.0 -- 11.2 2013-07-05 19:19:00
2 1953-10-09 12:00:00 Temperatura 6.3 del 09-10-1953 10:00, Menor que la Mínima 6.8 09-10-1953 12:00 6.3 -- 6.8 2013-07-25 13:32:00
2 1954-01-16 12:00:00 Temperatura 11.8 del 16-01-1954 12:00, Menor que la Mínima 12.2 16-01-1954 12:00 11.8 -- 12.2 2012-10-12 15:42:00
2 1954-02-27 12:00:00 Temperatura 10.4 del 27-02-1954 12:00, Menor que la Mínima 10.5 27-02-1954 12:00 10.4 -- 10.5 2012-10-18 12:38:00
2 1954-04-02 12:00:00 Temperatura 2.8 del 02-04-1954 11:00, Menor que la Mínima 11.0 02-04-1954 12:00 2.8 -- 11.0 2012-10-23 15:32:00
2 1954-05-13 12:00:00 Temperatura 8.0 del 13-05-1954 12:00, Menor que la Mínima 8.4 13-05-1954 12:00 8.0 -- 8.4 2012-10-24 20:24:00
2 1954-05-19 12:00:00 Temperatura 5.2 del 19-05-1954 12:00, Menor que la Mínima 5.8 19-05-1954 12:00 5.2 -- 5.8 2012-10-25 15:00:00
2 1954-07-01 12:00:00 Temperatura -0.4 del 01-07-1954 12:00, Menor que la Mínima -0.3 01-07-1954 12:00 -0.4 -- -0.3 2012-10-29 18:45:00
2 1954-07-14 12:00:00 Temperatura 4.0 del 14-07-1954 10:00, Menor que la Mínima 6.8 14-07-1954 12:00 4.0 -- 6.8 2012-10-30 12:30:00
2 1954-07-21 12:00:00 Temperatura 3.0 del 21-07-1954 12:00, Menor que la Mínima 3.2 21-07-1954 12:00 3.0 -- 3.2 2012-10-30 14:46:00
2 1954-08-17 12:00:00 Temperatura 9.2 del 17-08-1954 12:00, Menor que la Mínima 9.4 17-08-1954 12:00 9.2 -- 9.4 2012-10-31 18:04:00
2 1954-09-10 12:00:00 Temperatura 5.7 del 10-09-1954 12:00, Menor que la Mínima 6.0 10-09-1954 12:00 5.7 -- 6.0 2012-11-05 15:42:00
2 1954-09-21 12:00:00 Temperatura 6.4 del 21-09-1954 10:00, Menor que la Mínima 8.0 21-09-1954 12:00 6.4 -- 8.0 2012-11-06 13:28:00
2 1954-09-29 12:00:00 Temperatura 6.6 del 29-09-1954 10:00, Menor que la Mínima 8.2 29-09-1954 12:00 6.6 -- 8.2 2012-11-06 17:18:00
2 1954-12-10 12:00:00 Temperatura 12.0 del 10-12-1954 10:00, Menor que la Mínima 12.8 10-12-1954 12:00 12.0 -- 12.8 2012-11-13 12:56:00
2 1953-05-27 12:00:00 Variación horaria de Intensidad del viento fuera de rango (1 hora Antes) 2 - 60 2013-07-05 20:16:00
Errores del Nivel 180
Informe generado el 23-07-2024 18:47
Requerimiento: RE6001